createdAt,value
2022-11-16T00:04:14.646Z,12.96
2022-11-16T00:09:28.630Z,12.85
2022-11-16T00:14:32.429Z,12.84
2022-11-16T00:19:33.814Z,12.83
2022-11-16T00:24:35.424Z,12.81
2022-11-16T00:29:36.878Z,12.81
2022-11-16T00:34:39.626Z,12.80
2022-11-16T00:39:40.970Z,12.84
2022-11-16T00:44:42.351Z,12.86
2022-11-16T00:49:43.742Z,12.87
2022-11-16T00:54:45.195Z,12.87
2022-11-16T00:59:46.626Z,12.83
2022-11-16T01:04:48.040Z,12.81
2022-11-16T01:09:49.432Z,12.79
2022-11-16T01:14:50.867Z,12.80
2022-11-16T01:19:52.695Z,12.75
2022-11-16T01:24:54.042Z,12.72
2022-11-16T01:29:55.396Z,12.66
2022-11-16T01:34:56.843Z,12.62
2022-11-16T01:39:58.268Z,12.61
2022-11-16T01:45:22.850Z,12.58
2022-11-16T01:50:24.757Z,12.50
2022-11-16T01:55:30.453Z,12.53
2022-11-16T02:00:32.109Z,12.55
2022-11-16T02:05:58.224Z,12.49
2022-11-16T02:11:11.767Z,12.46
2022-11-16T02:16:18.970Z,12.49
2022-11-16T02:21:35.085Z,12.52
2022-11-16T02:26:41.829Z,12.59
2022-11-16T02:31:57.680Z,12.53
2022-11-16T02:37:01.070Z,12.55
2022-11-16T02:42:05.849Z,12.56
2022-11-16T02:47:12.713Z,12.51
2022-11-16T02:52:15.869Z,12.49
2022-11-16T02:57:23.394Z,12.50
2022-11-16T03:02:27.733Z,12.52
2022-11-16T03:07:35.057Z,12.54
2022-11-16T03:12:38.594Z,12.53
2022-11-16T03:17:49.906Z,12.53
2022-11-16T03:22:59.055Z,12.37
2022-11-16T03:28:21.703Z,12.34
2022-11-16T03:33:45.853Z,12.39
2022-11-16T03:38:50.814Z,12.30
2022-11-16T03:43:54.290Z,12.30
2022-11-16T03:48:57.707Z,12.30
2022-11-16T03:53:59.169Z,12.36
2022-11-16T03:59:00.642Z,12.30
2022-11-16T04:04:01.975Z,12.18
2022-11-16T04:09:22.092Z,12.00
2022-11-16T04:14:43.648Z,12.11
2022-11-16T04:20:03.511Z,12.21
2022-11-16T04:25:13.243Z,12.24
2022-11-16T04:30:15.203Z,12.34
2022-11-16T04:35:35.359Z,12.42
2022-11-16T04:40:36.706Z,12.43
2022-11-16T04:45:56.437Z,12.48
2022-11-16T04:50:57.788Z,12.47
2022-11-16T04:56:00.875Z,12.61
2022-11-16T05:01:02.577Z,12.57
2022-11-16T05:06:04.096Z,12.55
2022-11-16T05:11:05.698Z,12.66
2022-11-16T05:16:07.482Z,12.69
2022-11-16T05:21:08.837Z,12.70
2022-11-16T05:26:10.284Z,12.81
2022-11-16T05:31:11.689Z,12.74
2022-11-16T05:36:13.054Z,12.76
2022-11-16T05:41:14.498Z,12.75
2022-11-16T05:46:16.606Z,12.76
2022-11-16T05:51:17.952Z,12.66
2022-11-16T05:56:19.439Z,12.66
2022-11-16T06:01:21.015Z,12.66
2022-11-16T06:06:23.441Z,12.64
2022-11-16T06:11:25.000Z,12.69
2022-11-16T06:16:26.389Z,12.73
2022-11-16T06:21:27.862Z,12.79
2022-11-16T06:26:29.291Z,12.81
2022-11-16T06:31:30.698Z,12.80
2022-11-16T06:36:32.106Z,12.80
2022-11-16T06:41:37.604Z,12.78
2022-11-16T06:46:41.603Z,12.79
2022-11-16T06:51:42.939Z,12.81
2022-11-16T06:56:44.367Z,12.86
2022-11-16T07:01:45.736Z,12.79
2022-11-16T07:06:47.587Z,12.84
2022-11-16T07:11:49.073Z,12.86
2022-11-16T07:16:54.857Z,12.83
2022-11-16T07:21:59.855Z,12.82
2022-11-16T07:27:01.253Z,12.81
2022-11-16T07:32:02.662Z,12.79
2022-11-16T07:37:04.107Z,12.75
2022-11-16T07:42:11.362Z,12.81
2022-11-16T07:47:12.778Z,12.81
2022-11-16T07:52:14.195Z,12.87
2022-11-16T07:57:15.638Z,12.90
2022-11-16T08:02:17.107Z,13.10
2022-11-16T08:07:18.963Z,13.16
2022-11-16T08:12:20.350Z,13.16
2022-11-16T08:17:21.827Z,13.25
2022-11-16T08:22:23.208Z,13.32
2022-11-16T08:27:24.574Z,13.31
2022-11-16T08:32:25.997Z,13.09
2022-11-16T08:37:28.112Z,13.24
2022-11-16T08:42:29.465Z,13.21
2022-11-16T08:47:31.719Z,13.38
2022-11-16T08:52:33.118Z,13.51
2022-11-16T08:57:34.496Z,13.63
2022-11-16T09:02:35.816Z,13.67
2022-11-16T09:07:38.312Z,13.67
2022-11-16T09:12:39.880Z,13.69
2022-11-16T09:17:41.444Z,13.69
2022-11-16T09:22:42.782Z,13.71
2022-11-16T09:27:44.150Z,13.83
2022-11-16T09:32:45.571Z,13.73
2022-11-16T09:37:46.940Z,13.64
2022-11-16T09:43:18.797Z,13.61
2022-11-16T09:48:21.740Z,13.48
2022-11-16T09:53:29.051Z,13.44
2022-11-16T09:58:34.642Z,13.54
2022-11-16T10:03:43.999Z,13.67
2022-11-16T10:08:51.224Z,13.69
2022-11-16T10:14:04.672Z,13.75
2022-11-16T10:19:38.362Z,13.73
2022-11-16T10:24:57.665Z,13.86
2022-11-16T10:30:11.965Z,13.99
2022-11-16T10:35:18.239Z,14.07
2022-11-16T10:40:23.642Z,14.16
2022-11-16T10:45:33.044Z,14.23
2022-11-16T10:50:40.851Z,14.34
2022-11-16T10:55:42.286Z,14.51
2022-11-16T11:00:49.482Z,14.41
2022-11-16T11:05:53.357Z,14.55
2022-11-16T11:11:03.089Z,14.74
2022-11-16T11:16:17.037Z,14.75
2022-11-16T11:21:21.625Z,14.73
2022-11-16T11:26:36.969Z,14.75
2022-11-16T11:31:44.972Z,14.83
2022-11-16T11:36:54.555Z,14.81
2022-11-16T11:42:14.153Z,14.85
2022-11-16T11:53:23.849Z,15.09
2022-11-16T11:58:34.139Z,15.08
2022-11-16T12:03:43.267Z,15.11
2022-11-16T12:09:23.361Z,15.05
2022-11-16T12:14:49.344Z,15.11
2022-11-16T12:20:29.250Z,15.08
2022-11-16T12:26:07.828Z,15.06
2022-11-16T12:31:15.234Z,15.21
2022-11-16T12:36:34.224Z,15.35
2022-11-16T12:41:59.871Z,15.47
2022-11-16T12:47:30.379Z,15.65
2022-11-16T12:53:07.818Z,15.71
2022-11-16T12:58:43.281Z,15.75
2022-11-16T13:03:50.962Z,15.76
2022-11-16T13:09:05.732Z,15.85
2022-11-16T13:14:13.147Z,15.85
2022-11-16T13:19:17.108Z,15.97
2022-11-16T13:24:35.066Z,16.08
2022-11-16T13:29:53.614Z,16.04
2022-11-16T13:34:57.116Z,16.10
2022-11-16T13:39:58.477Z,16.10
2022-11-16T13:45:13.783Z,16.13
2022-11-16T13:50:21.471Z,16.01
2022-11-16T13:55:32.105Z,15.91
2022-11-16T14:00:36.738Z,15.91
2022-11-16T14:05:41.566Z,15.88
2022-11-16T14:10:48.758Z,15.84
2022-11-16T14:16:10.155Z,15.75
2022-11-16T14:21:20.610Z,15.70
2022-11-16T14:26:48.520Z,15.57
2022-11-16T14:31:54.253Z,15.53
2022-11-16T14:36:56.068Z,15.50
2022-11-16T14:42:01.695Z,15.51
2022-11-16T14:47:03.948Z,15.45
2022-11-16T14:52:08.368Z,15.39
2022-11-16T14:57:18.827Z,15.36
2022-11-16T15:02:24.574Z,15.34
2022-11-16T15:07:28.644Z,15.19
2022-11-16T15:12:44.136Z,15.10
2022-11-16T15:18:07.161Z,15.06
2022-11-16T15:23:14.771Z,15.03
2022-11-16T15:28:34.479Z,14.98
2022-11-16T15:33:42.529Z,14.98
2022-11-16T15:38:44.135Z,14.76
2022-11-16T15:44:12.241Z,14.55
2022-11-16T15:49:28.561Z,14.14
2022-11-16T15:54:55.608Z,13.89
2022-11-16T15:59:58.533Z,14.03
2022-11-16T16:05:00.381Z,14.12
2022-11-16T16:10:18.450Z,14.11
2022-11-16T16:15:31.045Z,14.15
2022-11-16T16:20:33.444Z,14.09
2022-11-16T16:25:36.542Z,14.04
2022-11-16T16:30:39.541Z,14.04
2022-11-16T16:35:41.218Z,14.01
2022-11-16T16:40:43.663Z,13.95
2022-11-16T16:45:45.716Z,13.96
2022-11-16T16:50:48.515Z,13.96
2022-11-16T17:01:09.991Z,13.88
2022-11-16T17:06:12.073Z,13.84
2022-11-16T17:22:15.022Z,13.71
2022-11-16T17:27:16.799Z,13.62
2022-11-16T17:32:18.499Z,13.57
2022-11-16T17:37:21.792Z,13.59
2022-11-16T17:42:24.928Z,13.59
2022-11-16T17:47:26.861Z,13.58
2022-11-16T18:03:01.761Z,13.52
2022-11-16T18:08:05.151Z,13.53
2022-11-16T18:13:06.731Z,13.58
2022-11-16T18:18:08.121Z,13.58
2022-11-16T18:23:09.499Z,13.56
2022-11-16T18:28:10.894Z,13.57
2022-11-16T18:33:12.298Z,13.53
2022-11-16T18:38:14.200Z,13.55
2022-11-16T18:43:30.286Z,13.59
2022-11-16T19:00:09.665Z,13.55
2022-11-16T19:05:11.079Z,13.58
2022-11-16T19:10:13.759Z,13.50
2022-11-16T19:15:15.100Z,13.52
2022-11-16T19:20:16.566Z,13.53
2022-11-16T19:25:18.237Z,13.52
2022-11-16T19:30:21.094Z,13.52
2022-11-16T19:35:23.049Z,13.56
2022-11-16T19:40:25.435Z,13.54
2022-11-16T19:45:30.395Z,13.54
2022-11-16T19:50:32.261Z,13.56
2022-11-16T19:55:34.093Z,13.48
2022-11-16T20:00:35.598Z,13.48
2022-11-16T20:05:37.023Z,13.41
2022-11-16T20:10:38.626Z,13.40
2022-11-16T20:15:40.047Z,13.44
2022-11-16T20:20:41.383Z,13.44
2022-11-16T20:25:42.738Z,13.47
2022-11-16T20:30:47.683Z,13.45
2022-11-16T20:35:49.121Z,13.42
2022-11-16T20:40:50.498Z,13.35
2022-11-16T20:45:53.343Z,13.31
2022-11-16T20:50:55.201Z,13.26
2022-11-16T20:55:57.519Z,13.19
2022-11-16T21:01:12.667Z,13.06
2022-11-16T21:06:14.675Z,12.99
2022-11-16T21:11:23.049Z,12.91
2022-11-16T21:16:24.557Z,12.81
2022-11-16T21:21:26.326Z,12.57
2022-11-16T21:26:33.059Z,12.43
2022-11-16T21:31:36.340Z,12.45
2022-11-16T21:36:37.727Z,12.38
2022-11-16T21:41:39.179Z,12.28
2022-11-16T21:46:40.644Z,12.22
2022-11-16T21:51:42.070Z,12.10
2022-11-16T21:56:43.441Z,12.07
2022-11-16T22:01:59.986Z,12.17
2022-11-16T22:07:19.804Z,12.17
2022-11-16T22:12:21.179Z,12.15
2022-11-16T22:22:38.718Z,12.21
2022-11-16T22:27:58.715Z,12.22
2022-11-16T22:33:01.891Z,12.19
2022-11-16T22:38:04.552Z,12.08
2022-11-16T22:43:05.964Z,12.17
2022-11-16T22:48:07.303Z,12.09
2022-11-16T22:53:09.909Z,12.11
2022-11-16T22:58:11.266Z,12.18
2022-11-16T23:03:12.704Z,12.20
2022-11-16T23:08:14.095Z,12.22
2022-11-16T23:24:16.261Z,12.23
2022-11-16T23:29:17.644Z,12.24
2022-11-16T23:34:19.972Z,12.25
2022-11-16T23:39:21.330Z,12.27
2022-11-16T23:44:22.682Z,12.22
2022-11-16T23:49:24.103Z,12.21
2022-11-16T23:54:25.496Z,12.27
2022-11-16T23:59:26.980Z,12.31
